PWSweather.com
Personal Weather Stations
Station Observations
KCAOCEAN4
Jeffries Ranch, Oceanside, CA 92057

Jeffries RanchOceanside, CA 92057

Lat: 33.24433789, Lon: -117.25337219

Elevation: 207

Station Type: Davis Vantage Vue

jeffriesranchweather.com

High Low Average
Temperature 77.4°F25.2°C 57.4°F14.1°C 67.7°F19.8°C
Dew Point 64.2°F17.9°C 54.5°F12.5°C 60.0°F15.6°C
Winds 8.1 mph 13.0 kmh Calm Calm 2.0 mph SSW3.2 kmh SSW
Wind Gusts 13.0 mph20.9 kmh -- 5.0 mph8.0 kmh
Humidity 96% 56% 78%
Pressure 29.80 in1009.1 mb 29.71 in1006.1 mb -
Precipitation 0.00 in0.0 mm - -
Hour Temp Dew Point Humidity Winds Wind Gusts Pressure Precip Precip Rate Daily Precip Total
12:01 AM 61.3°F16.3°C 58.5°F14.7°C 90% Calm Calm 0.9 mph1.4 kmh 29.80 in1009.1 mb 0.00 in0.0 mm 0.00 in0.0 mm 0.00 in0.0 mm
12:11 AM 61.3°F16.3°C 58.5°F14.7°C 90% Calm Calm 0.9 mph1.4 kmh 29.79 in1008.8 mb 0.00 in0.0 mm 0.00 in0.0 mm 0.00 in0.0 mm
12:21 AM 61.2°F16.2°C 58.3°F14.6°C 90% Calm Calm 0.9 mph1.4 kmh 29.79 in1008.8 mb 0.00 in0.0 mm 0.00 in0.0 mm 0.00 in0.0 mm
12:31 AM 61.0°F16.1°C 58.1°F14.5°C 90% Calm Calm 0.9 mph1.4 kmh 29.79 in1008.8 mb 0.00 in0.0 mm 0.00 in0.0 mm 0.00 in0.0 mm
12:41 AM 60.6°F15.9°C 57.7°F14.3°C 90% Calm Calm -- 29.79 in1008.8 mb 0.00 in0.0 mm 0.00 in0.0 mm 0.00 in0.0 mm
12:51 AM 60.4°F15.8°C 57.6°F14.2°C 90% Calm Calm -- 29.78 in1008.5 mb 0.00 in0.0 mm 0.00 in0.0 mm 0.00 in0.0 mm
01:01 AM 60.4°F15.8°C 57.2°F14.0°C 89% Calm Calm -- 29.78 in1008.5 mb 0.00 in0.0 mm 0.00 in0.0 mm 0.00 in0.0 mm
01:11 AM 60.1°F15.6°C 57.2°F14.0°C 90% Calm Calm -- 29.78 in1008.5 mb 0.00 in0.0 mm 0.00 in0.0 mm 0.00 in0.0 mm
01:21 AM 59.9°F15.5°C 57.0°F13.9°C 90% Calm Calm 1.0 mph1.6 kmh 29.78 in1008.5 mb 0.00 in0.0 mm 0.00 in0.0 mm 0.00 in0.0 mm
01:31 AM 60.1°F15.6°C 57.2°F14.0°C 90% Calm Calm 0.9 mph1.4 kmh 29.78 in1008.5 mb 0.00 in0.0 mm 0.00 in0.0 mm 0.00 in0.0 mm
01:41 AM 59.7°F15.4°C 56.8°F13.8°C 90% Calm Calm 0.9 mph1.4 kmh 29.78 in1008.5 mb 0.00 in0.0 mm 0.00 in0.0 mm 0.00 in0.0 mm
01:51 AM 59.4°F15.2°C 56.5°F13.6°C 90% Calm Calm -- 29.78 in1008.5 mb 0.00 in0.0 mm 0.00 in0.0 mm 0.00 in0.0 mm
02:01 AM 59.4°F15.2°C 56.5°F13.6°C 90% Calm Calm 1.0 mph1.6 kmh 29.77 in1008.1 mb 0.00 in0.0 mm 0.00 in0.0 mm 0.00 in0.0 mm
02:11 AM 59.0°F15.0°C 56.1°F13.4°C 90% Calm Calm -- 29.77 in1008.1 mb 0.00 in0.0 mm 0.00 in0.0 mm 0.00 in0.0 mm
02:21 AM 58.8°F14.9°C 55.9°F13.3°C 90% Calm Calm 1.0 mph1.6 kmh 29.77 in1008.1 mb 0.00 in0.0 mm 0.00 in0.0 mm 0.00 in0.0 mm
02:31 AM 58.6°F14.8°C 55.4°F13.0°C 89% 0.9 mph ENE1.4 kmh ENE 2.0 mph3.2 kmh 29.77 in1008.1 mb 0.00 in0.0 mm 0.00 in0.0 mm 0.00 in0.0 mm
02:41 AM 58.3°F14.6°C 55.0°F12.8°C 89% Calm Calm 0.9 mph1.4 kmh 29.77 in1008.1 mb 0.00 in0.0 mm 0.00 in0.0 mm 0.00 in0.0 mm
02:51 AM 58.1°F14.5°C 55.2°F12.9°C 90% Calm Calm 2.0 mph3.2 kmh 29.77 in1008.1 mb 0.00 in0.0 mm 0.00 in0.0 mm 0.00 in0.0 mm
03:01 AM 57.9°F14.4°C 54.7°F12.6°C 89% Calm Calm 0.9 mph1.4 kmh 29.77 in1008.1 mb 0.00 in0.0 mm 0.00 in0.0 mm 0.00 in0.0 mm
03:11 AM 57.7°F14.3°C 54.9°F12.7°C 90% 0.9 mph NE1.4 kmh NE 2.0 mph3.2 kmh 29.77 in1008.1 mb 0.00 in0.0 mm 0.00 in0.0 mm 0.00 in0.0 mm
03:21 AM 57.6°F14.2°C 54.7°F12.6°C 90% Calm Calm 2.0 mph3.2 kmh 29.77 in1008.1 mb 0.00 in0.0 mm 0.00 in0.0 mm 0.00 in0.0 mm
03:31 AM 57.4°F14.1°C 54.5°F12.5°C 90% Calm Calm 0.9 mph1.4 kmh 29.77 in1008.1 mb 0.00 in0.0 mm 0.00 in0.0 mm 0.00 in0.0 mm
03:41 AM 57.4°F14.1°C 54.9°F12.7°C 91% Calm Calm 0.9 mph1.4 kmh 29.77 in1008.1 mb 0.00 in0.0 mm 0.00 in0.0 mm 0.00 in0.0 mm
03:51 AM 57.6°F14.2°C 55.0°F12.8°C 91% Calm Calm 2.0 mph3.2 kmh 29.78 in1008.5 mb 0.00 in0.0 mm 0.00 in0.0 mm 0.00 in0.0 mm
04:01 AM 57.7°F14.3°C 55.2°F12.9°C 91% Calm Calm 0.9 mph1.4 kmh 29.78 in1008.5 mb 0.00 in0.0 mm 0.00 in0.0 mm 0.00 in0.0 mm
04:12 AM 57.9°F14.4°C 55.2°F12.9°C 91% Calm Calm 0.9 mph1.4 kmh 29.78 in1008.5 mb 0.00 in0.0 mm 0.00 in0.0 mm 0.00 in0.0 mm
04:22 AM 58.3°F14.6°C 55.6°F13.1°C 91% Calm Calm -- 29.77 in1008.1 mb 0.00 in0.0 mm 0.00 in0.0 mm 0.00 in0.0 mm
04:32 AM 58.3°F14.6°C 55.4°F13.0°C 90% Calm Calm -- 29.77 in1008.1 mb 0.00 in0.0 mm 0.00 in0.0 mm 0.00 in0.0 mm
04:42 AM 58.5°F14.7°C 55.6°F13.1°C 90% Calm Calm 0.9 mph1.4 kmh 29.77 in1008.1 mb 0.00 in0.0 mm 0.00 in0.0 mm 0.00 in0.0 mm
04:52 AM 58.8°F14.9°C 55.9°F13.3°C 90% Calm Calm 0.9 mph1.4 kmh 29.78 in1008.5 mb 0.00 in0.0 mm 0.00 in0.0 mm 0.00 in0.0 mm
05:02 AM 59.2°F15.1°C 56.3°F13.5°C 90% Calm Calm 2.0 mph3.2 kmh 29.78 in1008.5 mb 0.00 in0.0 mm 0.00 in0.0 mm 0.00 in0.0 mm
05:12 AM 59.4°F15.2°C 56.7°F13.7°C 91% Calm Calm 0.9 mph1.4 kmh 29.78 in1008.5 mb 0.00 in0.0 mm 0.00 in0.0 mm 0.00 in0.0 mm
05:22 AM 59.5°F15.3°C 57.2°F14.0°C 92% Calm Calm 0.9 mph1.4 kmh 29.78 in1008.5 mb 0.00 in0.0 mm 0.00 in0.0 mm 0.00 in0.0 mm
05:32 AM 59.7°F15.4°C 57.7°F14.3°C 93% Calm Calm -- 29.78 in1008.5 mb 0.00 in0.0 mm 0.00 in0.0 mm 0.00 in0.0 mm
05:42 AM 59.9°F15.5°C 58.1°F14.5°C 94% Calm Calm -- 29.79 in1008.8 mb 0.00 in0.0 mm 0.00 in0.0 mm 0.00 in0.0 mm
05:52 AM 60.3°F15.7°C 58.5°F14.7°C 94% Calm Calm -- 29.79 in1008.8 mb 0.00 in0.0 mm 0.00 in0.0 mm 0.00 in0.0 mm
06:02 AM 60.3°F15.7°C 58.5°F14.7°C 94% Calm Calm 0.9 mph1.4 kmh 29.79 in1008.8 mb 0.00 in0.0 mm 0.00 in0.0 mm 0.00 in0.0 mm
06:12 AM 60.1°F15.6°C 58.3°F14.6°C 94% Calm Calm 0.9 mph1.4 kmh 29.79 in1008.8 mb 0.00 in0.0 mm 0.00 in0.0 mm 0.00 in0.0 mm
06:22 AM 59.7°F15.4°C 58.3°F14.6°C 95% Calm Calm 0.9 mph1.4 kmh 29.80 in1009.1 mb 0.00 in0.0 mm 0.00 in0.0 mm 0.00 in0.0 mm
06:32 AM 59.7°F15.4°C 58.3°F14.6°C 95% Calm Calm 0.9 mph1.4 kmh 29.79 in1008.8 mb 0.00 in0.0 mm 0.00 in0.0 mm 0.00 in0.0 mm
06:42 AM 59.4°F15.2°C 57.9°F14.4°C 95% Calm Calm 0.9 mph1.4 kmh 29.79 in1008.8 mb 0.00 in0.0 mm 0.00 in0.0 mm 0.00 in0.0 mm
06:52 AM 59.2°F15.1°C 57.7°F14.3°C 95% 0.9 mph NE1.4 kmh NE 2.0 mph3.2 kmh 29.79 in1008.8 mb 0.00 in0.0 mm 0.00 in0.0 mm 0.00 in0.0 mm
07:02 AM 58.8°F14.9°C 57.4°F14.1°C 95% 0.9 mph NE1.4 kmh NE 2.0 mph3.2 kmh 29.79 in1008.8 mb 0.00 in0.0 mm 0.00 in0.0 mm 0.00 in0.0 mm
07:12 AM 59.0°F15.0°C 57.6°F14.2°C 95% 0.9 mph ENE1.4 kmh ENE 3.0 mph4.8 kmh 29.80 in1009.1 mb 0.00 in0.0 mm 0.00 in0.0 mm 0.00 in0.0 mm
07:22 AM 59.0°F15.0°C 57.6°F14.2°C 95% 2.0 mph ENE3.2 kmh ENE 2.9 mph4.7 kmh 29.80 in1009.1 mb 0.00 in0.0 mm 0.00 in0.0 mm 0.00 in0.0 mm
07:32 AM 59.2°F15.1°C 58.1°F14.5°C 96% 2.0 mph ENE3.2 kmh ENE 4.0 mph6.4 kmh 29.80 in1009.1 mb 0.00 in0.0 mm 0.00 in0.0 mm 0.00 in0.0 mm
07:42 AM 59.7°F15.4°C 58.6°F14.8°C 96% Calm Calm 2.0 mph3.2 kmh 29.80 in1009.1 mb 0.00 in0.0 mm 0.00 in0.0 mm 0.00 in0.0 mm
07:52 AM 60.4°F15.8°C 59.4°F15.2°C 96% Calm Calm 0.9 mph1.4 kmh 29.80 in1009.1 mb 0.00 in0.0 mm 0.00 in0.0 mm 0.00 in0.0 mm
08:02 AM 61.2°F16.2°C 59.7°F15.4°C 95% Calm Calm 0.9 mph1.4 kmh 29.80 in1009.1 mb 0.00 in0.0 mm 0.00 in0.0 mm 0.00 in0.0 mm
08:12 AM 61.7°F16.5°C 59.9°F15.5°C 94% Calm Calm 2.9 mph4.7 kmh 29.80 in1009.1 mb 0.00 in0.0 mm 0.00 in0.0 mm 0.00 in0.0 mm
08:22 AM 62.8°F17.1°C 60.1°F15.6°C 91% 0.9 mph WNW1.4 kmh WNW 2.0 mph3.2 kmh 29.80 in1009.1 mb 0.00 in0.0 mm 0.00 in0.0 mm 0.00 in0.0 mm
08:32 AM 64.2°F17.9°C 61.0°F16.1°C 89% 0.9 mph NW1.4 kmh NW 2.9 mph4.7 kmh 29.80 in1009.1 mb 0.00 in0.0 mm 0.00 in0.0 mm 0.00 in0.0 mm
08:42 AM 64.8°F18.2°C 60.8°F16.0°C 87% 0.9 mph NW1.4 kmh NW 4.0 mph6.4 kmh 29.80 in1009.1 mb 0.00 in0.0 mm 0.00 in0.0 mm 0.00 in0.0 mm
08:52 AM 64.9°F18.3°C 61.0°F16.1°C 87% 2.0 mph NE3.2 kmh NE 4.0 mph6.4 kmh 29.79 in1008.8 mb 0.00 in0.0 mm 0.00 in0.0 mm 0.00 in0.0 mm
09:02 AM 65.8°F18.8°C 60.8°F16.0°C 84% 0.9 mph WNW1.4 kmh WNW 2.9 mph4.7 kmh 29.79 in1008.8 mb 0.00 in0.0 mm 0.00 in0.0 mm 0.00 in0.0 mm
09:12 AM 66.6°F19.2°C 61.5°F16.4°C 84% 0.9 mph NW1.4 kmh NW 4.0 mph6.4 kmh 29.79 in1008.8 mb 0.00 in0.0 mm 0.00 in0.0 mm 0.00 in0.0 mm
09:22 AM 67.6°F19.8°C 61.5°F16.4°C 81% 0.9 mph WNW1.4 kmh WNW 4.0 mph6.4 kmh 29.79 in1008.8 mb 0.00 in0.0 mm 0.00 in0.0 mm 0.00 in0.0 mm
09:32 AM 68.0°F20.0°C 61.5°F16.4°C 80% 2.0 mph NW3.2 kmh NW 6.0 mph9.7 kmh 29.78 in1008.5 mb 0.00 in0.0 mm 0.00 in0.0 mm 0.00 in0.0 mm
09:42 AM 69.4°F20.8°C 61.9°F16.6°C 77% 2.0 mph NW3.2 kmh NW 4.9 mph7.9 kmh 29.78 in1008.5 mb 0.00 in0.0 mm 0.00 in0.0 mm 0.00 in0.0 mm
09:52 AM 70.5°F21.4°C 62.2°F16.8°C 75% 2.0 mph SW3.2 kmh SW 4.9 mph7.9 kmh 29.78 in1008.5 mb 0.00 in0.0 mm 0.00 in0.0 mm 0.00 in0.0 mm
10:02 AM 71.4°F21.9°C 62.8°F17.1°C 74% 2.0 mph NW3.2 kmh NW 4.9 mph7.9 kmh 29.78 in1008.5 mb 0.00 in0.0 mm 0.00 in0.0 mm 0.00 in0.0 mm
10:12 AM 72.5°F22.5°C 62.2°F16.8°C 70% 2.0 mph NE3.2 kmh NE 6.0 mph9.7 kmh 29.78 in1008.5 mb 0.00 in0.0 mm 0.00 in0.0 mm 0.00 in0.0 mm
10:22 AM 73.6°F23.1°C 62.4°F16.9°C 68% 2.9 mph NW4.7 kmh NW 6.0 mph9.7 kmh 29.77 in1008.1 mb 0.00 in0.0 mm 0.00 in0.0 mm 0.00 in0.0 mm
10:32 AM 74.7°F23.7°C 62.1°F16.7°C 65% 2.9 mph NW4.7 kmh NW 6.0 mph9.7 kmh 29.78 in1008.5 mb 0.00 in0.0 mm 0.00 in0.0 mm 0.00 in0.0 mm
10:42 AM 75.6°F24.2°C 61.2°F16.2°C 61% 4.0 mph W6.4 kmh W 6.9 mph11.1 kmh 29.77 in1008.1 mb 0.00 in0.0 mm 0.00 in0.0 mm 0.00 in0.0 mm
10:52 AM 77.0°F25.0°C 62.6°F17.0°C 61% 4.0 mph W6.4 kmh W 6.9 mph11.1 kmh 29.77 in1008.1 mb 0.00 in0.0 mm 0.00 in0.0 mm 0.00 in0.0 mm
11:02 AM 77.4°F25.2°C 63.9°F17.7°C 63% 4.0 mph NW6.4 kmh NW 9.0 mph14.5 kmh 29.77 in1008.1 mb 0.00 in0.0 mm 0.00 in0.0 mm 0.00 in0.0 mm
11:12 AM 77.2°F25.1°C 64.0°F17.8°C 64% 6.0 mph WNW9.7 kmh WNW 8.9 mph14.3 kmh 29.76 in1007.8 mb 0.00 in0.0 mm 0.00 in0.0 mm 0.00 in0.0 mm
11:22 AM 76.8°F24.9°C 63.7°F17.6°C 64% 6.0 mph WNW9.7 kmh WNW 12.1 mph19.5 kmh 29.77 in1008.1 mb 0.00 in0.0 mm 0.00 in0.0 mm 0.00 in0.0 mm
11:32 AM 76.6°F24.8°C 64.0°F17.8°C 65% 6.9 mph W11.1 kmh W 12.1 mph19.5 kmh 29.76 in1007.8 mb 0.00 in0.0 mm 0.00 in0.0 mm 0.00 in0.0 mm
11:42 AM 76.3°F24.6°C 64.0°F17.8°C 66% 8.1 mph WNW13.0 kmh WNW 11.0 mph17.7 kmh 29.76 in1007.8 mb 0.00 in0.0 mm 0.00 in0.0 mm 0.00 in0.0 mm
11:52 AM 77.4°F25.2°C 64.2°F17.9°C 64% 6.0 mph WSW9.7 kmh WSW 11.0 mph17.7 kmh 29.76 in1007.8 mb 0.00 in0.0 mm 0.00 in0.0 mm 0.00 in0.0 mm
12:02 PM 76.6°F24.8°C 64.0°F17.8°C 65% 6.0 mph SW9.7 kmh SW 11.0 mph17.7 kmh 29.76 in1007.8 mb 0.00 in0.0 mm 0.00 in0.0 mm 0.00 in0.0 mm
12:12 PM 76.5°F24.7°C 63.9°F17.7°C 65% 4.9 mph WSW7.9 kmh WSW 11.0 mph17.7 kmh 29.76 in1007.8 mb 0.00 in0.0 mm 0.00 in0.0 mm 0.00 in0.0 mm
12:22 PM 76.3°F24.6°C 63.1°F17.3°C 64% 4.9 mph SW7.9 kmh SW 11.0 mph17.7 kmh 29.76 in1007.8 mb 0.00 in0.0 mm 0.00 in0.0 mm 0.00 in0.0 mm
12:32 PM 75.9°F24.4°C 62.4°F16.9°C 63% 4.9 mph WSW7.9 kmh WSW 11.0 mph17.7 kmh 29.75 in1007.5 mb 0.00 in0.0 mm 0.00 in0.0 mm 0.00 in0.0 mm
12:42 PM 75.7°F24.3°C 63.1°F17.3°C 65% 4.9 mph SW7.9 kmh SW 10.1 mph16.3 kmh 29.75 in1007.5 mb 0.00 in0.0 mm 0.00 in0.0 mm 0.00 in0.0 mm
12:52 PM 75.7°F24.3°C 63.1°F17.3°C 65% 6.0 mph S9.7 kmh S 12.1 mph19.5 kmh 29.75 in1007.5 mb 0.00 in0.0 mm 0.00 in0.0 mm 0.00 in0.0 mm
01:02 PM 75.9°F24.4°C 63.3°F17.4°C 65% 6.0 mph WSW9.7 kmh WSW 11.0 mph17.7 kmh 29.75 in1007.5 mb 0.00 in0.0 mm 0.00 in0.0 mm 0.00 in0.0 mm
01:12 PM 75.9°F24.4°C 62.8°F17.1°C 64% 6.0 mph W9.7 kmh W 11.0 mph17.7 kmh 29.75 in1007.5 mb 0.00 in0.0 mm 0.00 in0.0 mm 0.00 in0.0 mm
01:22 PM 75.6°F24.2°C 63.0°F17.2°C 65% 6.0 mph S9.7 kmh S 12.1 mph19.5 kmh 29.74 in1007.1 mb 0.00 in0.0 mm 0.00 in0.0 mm 0.00 in0.0 mm
01:32 PM 76.3°F24.6°C 62.8°F17.1°C 63% 6.0 mph NW9.7 kmh NW 10.1 mph16.3 kmh 29.74 in1007.1 mb 0.00 in0.0 mm 0.00 in0.0 mm 0.00 in0.0 mm
01:42 PM 75.6°F24.2°C 62.6°F17.0°C 64% 4.9 mph W7.9 kmh W 11.0 mph17.7 kmh 29.74 in1007.1 mb 0.00 in0.0 mm 0.00 in0.0 mm 0.00 in0.0 mm
01:52 PM 76.5°F24.7°C 62.4°F16.9°C 62% 4.9 mph SW7.9 kmh SW 10.1 mph16.3 kmh 29.74 in1007.1 mb 0.00 in0.0 mm 0.00 in0.0 mm 0.00 in0.0 mm
02:02 PM 76.5°F24.7°C 62.1°F16.7°C 61% 6.0 mph W9.7 kmh W 11.0 mph17.7 kmh 29.74 in1007.1 mb 0.00 in0.0 mm 0.00 in0.0 mm 0.00 in0.0 mm
02:12 PM 76.8°F24.9°C 61.3°F16.3°C 59% 6.0 mph W9.7 kmh W 11.0 mph17.7 kmh 29.74 in1007.1 mb 0.00 in0.0 mm 0.00 in0.0 mm 0.00 in0.0 mm
02:22 PM 77.2°F25.1°C 61.3°F16.3°C 58% 6.0 mph WNW9.7 kmh WNW 11.0 mph17.7 kmh 29.74 in1007.1 mb 0.00 in0.0 mm 0.00 in0.0 mm 0.00 in0.0 mm
02:32 PM 76.8°F24.9°C 61.3°F16.3°C 59% 6.9 mph SW11.1 kmh SW 13.0 mph20.9 kmh 29.73 in1006.8 mb 0.00 in0.0 mm 0.00 in0.0 mm 0.00 in0.0 mm
02:42 PM 76.3°F24.6°C 61.9°F16.6°C 61% 6.9 mph W11.1 kmh W 12.1 mph19.5 kmh 29.73 in1006.8 mb 0.00 in0.0 mm 0.00 in0.0 mm 0.00 in0.0 mm
02:52 PM 76.6°F24.8°C 61.2°F16.2°C 59% 6.0 mph WSW9.7 kmh WSW 11.0 mph17.7 kmh 29.73 in1006.8 mb 0.00 in0.0 mm 0.00 in0.0 mm 0.00 in0.0 mm
03:02 PM 76.6°F24.8°C 62.6°F17.0°C 62% 4.9 mph NW7.9 kmh NW 11.0 mph17.7 kmh 29.73 in1006.8 mb 0.00 in0.0 mm 0.00 in0.0 mm 0.00 in0.0 mm
03:12 PM 77.0°F25.0°C 61.5°F16.4°C 59% 4.9 mph SW7.9 kmh SW 8.9 mph14.3 kmh 29.72 in1006.4 mb 0.00 in0.0 mm 0.00 in0.0 mm 0.00 in0.0 mm
03:22 PM 76.6°F24.8°C 61.7°F16.5°C 60% 4.9 mph WSW7.9 kmh WSW 10.1 mph16.3 kmh 29.72 in1006.4 mb 0.00 in0.0 mm 0.00 in0.0 mm 0.00 in0.0 mm
03:32 PM 76.6°F24.8°C 60.8°F16.0°C 58% 6.0 mph SW9.7 kmh SW 12.1 mph19.5 kmh 29.72 in1006.4 mb 0.00 in0.0 mm 0.00 in0.0 mm 0.00 in0.0 mm
03:42 PM 76.5°F24.7°C 61.5°F16.4°C 60% 6.0 mph WSW9.7 kmh WSW 10.1 mph16.3 kmh 29.72 in1006.4 mb 0.00 in0.0 mm 0.00 in0.0 mm 0.00 in0.0 mm
03:52 PM 77.2°F25.1°C 61.3°F16.3°C 58% 4.9 mph SSE7.9 kmh SSE 10.1 mph16.3 kmh 29.72 in1006.4 mb 0.00 in0.0 mm 0.00 in0.0 mm 0.00 in0.0 mm
04:02 PM 76.1°F24.5°C 61.7°F16.5°C 61% 4.9 mph SE7.9 kmh SE 11.0 mph17.7 kmh 29.72 in1006.4 mb 0.00 in0.0 mm 0.00 in0.0 mm 0.00 in0.0 mm
04:12 PM 76.3°F24.6°C 61.3°F16.3°C 60% 4.0 mph WNW6.4 kmh WNW 10.1 mph16.3 kmh 29.72 in1006.4 mb 0.00 in0.0 mm 0.00 in0.0 mm 0.00 in0.0 mm
04:22 PM 76.5°F24.7°C 59.5°F15.3°C 56% 4.0 mph W6.4 kmh W 8.9 mph14.3 kmh 29.72 in1006.4 mb 0.00 in0.0 mm 0.00 in0.0 mm 0.00 in0.0 mm
04:32 PM 76.5°F24.7°C 61.0°F16.1°C 59% 4.9 mph SSW7.9 kmh SSW 11.0 mph17.7 kmh 29.72 in1006.4 mb 0.00 in0.0 mm 0.00 in0.0 mm 0.00 in0.0 mm
04:42 PM 75.6°F24.2°C 61.2°F16.2°C 61% 4.9 mph WNW7.9 kmh WNW 10.1 mph16.3 kmh 29.72 in1006.4 mb 0.00 in0.0 mm 0.00 in0.0 mm 0.00 in0.0 mm
04:52 PM 75.6°F24.2°C 60.6°F15.9°C 60% 4.9 mph W7.9 kmh W 10.1 mph16.3 kmh 29.72 in1006.4 mb 0.00 in0.0 mm 0.00 in0.0 mm 0.00 in0.0 mm
05:02 PM 75.2°F24.0°C 60.4°F15.8°C 60% 6.0 mph W9.7 kmh W 10.1 mph16.3 kmh 29.72 in1006.4 mb 0.00 in0.0 mm 0.00 in0.0 mm 0.00 in0.0 mm
05:12 PM 75.0°F23.9°C 59.7°F15.4°C 59% 4.9 mph W7.9 kmh W 10.1 mph16.3 kmh 29.72 in1006.4 mb 0.00 in0.0 mm 0.00 in0.0 mm 0.00 in0.0 mm
05:22 PM 75.7°F24.3°C 60.8°F16.0°C 60% 4.0 mph W6.4 kmh W 8.9 mph14.3 kmh 29.71 in1006.1 mb 0.00 in0.0 mm 0.00 in0.0 mm 0.00 in0.0 mm
05:32 PM 75.0°F23.9°C 60.3°F15.7°C 60% 4.9 mph W7.9 kmh W 8.1 mph13.0 kmh 29.71 in1006.1 mb 0.00 in0.0 mm 0.00 in0.0 mm 0.00 in0.0 mm
05:42 PM 75.0°F23.9°C 60.3°F15.7°C 60% 4.0 mph W6.4 kmh W 6.9 mph11.1 kmh 29.71 in1006.1 mb 0.00 in0.0 mm 0.00 in0.0 mm 0.00 in0.0 mm
05:52 PM 75.0°F23.9°C 61.2°F16.2°C 62% 4.0 mph WSW6.4 kmh WSW 6.9 mph11.1 kmh 29.71 in1006.1 mb 0.00 in0.0 mm 0.00 in0.0 mm 0.00 in0.0 mm
06:02 PM 74.8°F23.8°C 61.3°F16.3°C 63% 4.0 mph WSW6.4 kmh WSW 8.1 mph13.0 kmh 29.71 in1006.1 mb 0.00 in0.0 mm 0.00 in0.0 mm 0.00 in0.0 mm
06:12 PM 74.8°F23.8°C 61.3°F16.3°C 63% 4.0 mph WNW6.4 kmh WNW 6.9 mph11.1 kmh 29.71 in1006.1 mb 0.00 in0.0 mm 0.00 in0.0 mm 0.00 in0.0 mm
06:22 PM 74.7°F23.7°C 61.7°F16.5°C 64% 4.0 mph WNW6.4 kmh WNW 6.9 mph11.1 kmh 29.71 in1006.1 mb 0.00 in0.0 mm 0.00 in0.0 mm 0.00 in0.0 mm
06:32 PM 75.0°F23.9°C 61.2°F16.2°C 62% 2.9 mph WSW4.7 kmh WSW 6.0 mph9.7 kmh 29.71 in1006.1 mb 0.00 in0.0 mm 0.00 in0.0 mm 0.00 in0.0 mm
06:42 PM 75.2°F24.0°C 60.8°F16.0°C 61% 2.9 mph W4.7 kmh W 4.9 mph7.9 kmh 29.71 in1006.1 mb 0.00 in0.0 mm 0.00 in0.0 mm 0.00 in0.0 mm
06:52 PM 75.0°F23.9°C 60.3°F15.7°C 60% 2.9 mph W4.7 kmh W 6.0 mph9.7 kmh 29.71 in1006.1 mb 0.00 in0.0 mm 0.00 in0.0 mm 0.00 in0.0 mm
07:02 PM 75.0°F23.9°C 60.6°F15.9°C 61% 2.9 mph W4.7 kmh W 5.0 mph8.0 kmh 29.71 in1006.1 mb 0.00 in0.0 mm 0.00 in0.0 mm 0.00 in0.0 mm
07:12 PM 75.0°F23.9°C 60.6°F15.9°C 61% 2.0 mph W3.2 kmh W 4.9 mph7.9 kmh 29.71 in1006.1 mb 0.00 in0.0 mm 0.00 in0.0 mm 0.00 in0.0 mm
07:22 PM 74.5°F23.6°C 60.6°F15.9°C 62% 2.9 mph W4.7 kmh W 4.9 mph7.9 kmh 29.71 in1006.1 mb 0.00 in0.0 mm 0.00 in0.0 mm 0.00 in0.0 mm
07:32 PM 73.9°F23.3°C 60.1°F15.6°C 62% 2.9 mph WNW4.7 kmh WNW 4.9 mph7.9 kmh 29.72 in1006.4 mb 0.00 in0.0 mm 0.00 in0.0 mm 0.00 in0.0 mm
07:42 PM 73.4°F23.0°C 60.4°F15.8°C 64% 2.9 mph W4.7 kmh W 5.0 mph8.0 kmh 29.72 in1006.4 mb 0.00 in0.0 mm 0.00 in0.0 mm 0.00 in0.0 mm
07:52 PM 72.1°F22.3°C 60.6°F15.9°C 67% 2.9 mph WSW4.7 kmh WSW 4.9 mph7.9 kmh 29.72 in1006.4 mb 0.00 in0.0 mm 0.00 in0.0 mm 0.00 in0.0 mm
08:02 PM 70.5°F21.4°C 61.0°F16.1°C 72% 2.0 mph WNW3.2 kmh WNW 5.0 mph8.0 kmh 29.72 in1006.4 mb 0.00 in0.0 mm 0.00 in0.0 mm 0.00 in0.0 mm
08:12 PM 69.8°F21.0°C 61.5°F16.4°C 75% 2.0 mph WNW3.2 kmh WNW 6.0 mph9.7 kmh 29.72 in1006.4 mb 0.00 in0.0 mm 0.00 in0.0 mm 0.00 in0.0 mm
08:22 PM 69.1°F20.6°C 61.2°F16.2°C 76% 2.9 mph WNW4.7 kmh WNW 5.0 mph8.0 kmh 29.72 in1006.4 mb 0.00 in0.0 mm 0.00 in0.0 mm 0.00 in0.0 mm
08:32 PM 68.4°F20.2°C 61.2°F16.2°C 78% 2.0 mph WNW3.2 kmh WNW 4.0 mph6.4 kmh 29.72 in1006.4 mb 0.00 in0.0 mm 0.00 in0.0 mm 0.00 in0.0 mm
08:42 PM 67.8°F19.9°C 61.0°F16.1°C 79% 2.0 mph WSW3.2 kmh WSW 4.0 mph6.4 kmh 29.72 in1006.4 mb 0.00 in0.0 mm 0.00 in0.0 mm 0.00 in0.0 mm
08:52 PM 67.3°F19.6°C 61.2°F16.2°C 81% 2.0 mph W3.2 kmh W 4.0 mph6.4 kmh 29.72 in1006.4 mb 0.00 in0.0 mm 0.00 in0.0 mm 0.00 in0.0 mm
09:02 PM 66.7°F19.3°C 61.0°F16.1°C 82% 2.0 mph W3.2 kmh W 4.0 mph6.4 kmh 29.72 in1006.4 mb 0.00 in0.0 mm 0.00 in0.0 mm 0.00 in0.0 mm
09:12 PM 66.4°F19.1°C 61.0°F16.1°C 83% 2.0 mph WNW3.2 kmh WNW 4.0 mph6.4 kmh 29.72 in1006.4 mb 0.00 in0.0 mm 0.00 in0.0 mm 0.00 in0.0 mm
09:22 PM 65.8°F18.8°C 60.8°F16.0°C 84% 2.0 mph WSW3.2 kmh WSW 4.0 mph6.4 kmh 29.73 in1006.8 mb 0.00 in0.0 mm 0.00 in0.0 mm 0.00 in0.0 mm
09:32 PM 65.5°F18.6°C 60.8°F16.0°C 85% 2.0 mph WSW3.2 kmh WSW 4.0 mph6.4 kmh 29.73 in1006.8 mb 0.00 in0.0 mm 0.00 in0.0 mm 0.00 in0.0 mm
09:42 PM 65.1°F18.4°C 60.8°F16.0°C 86% 2.0 mph WSW3.2 kmh WSW 4.0 mph6.4 kmh 29.74 in1007.1 mb 0.00 in0.0 mm 0.00 in0.0 mm 0.00 in0.0 mm
09:52 PM 64.9°F18.3°C 61.0°F16.1°C 87% 0.9 mph WNW1.4 kmh WNW 2.9 mph4.7 kmh 29.74 in1007.1 mb 0.00 in0.0 mm 0.00 in0.0 mm 0.00 in0.0 mm
10:02 PM 64.9°F18.3°C 61.0°F16.1°C 87% 0.9 mph W1.4 kmh W 2.9 mph4.7 kmh 29.75 in1007.5 mb 0.00 in0.0 mm 0.00 in0.0 mm 0.00 in0.0 mm
10:12 PM 64.8°F18.2°C 60.8°F16.0°C 87% Calm Calm 2.0 mph3.2 kmh 29.75 in1007.5 mb 0.00 in0.0 mm 0.00 in0.0 mm 0.00 in0.0 mm
10:22 PM 64.6°F18.1°C 61.0°F16.1°C 88% Calm Calm 0.9 mph1.4 kmh 29.75 in1007.5 mb 0.00 in0.0 mm 0.00 in0.0 mm 0.00 in0.0 mm
10:32 PM 64.2°F17.9°C 60.6°F15.9°C 88% Calm Calm -- 29.75 in1007.5 mb 0.00 in0.0 mm 0.00 in0.0 mm 0.00 in0.0 mm
10:42 PM 64.2°F17.9°C 61.0°F16.1°C 89% Calm Calm 0.9 mph1.4 kmh 29.75 in1007.5 mb 0.00 in0.0 mm 0.00 in0.0 mm 0.00 in0.0 mm
10:52 PM 64.0°F17.8°C 60.8°F16.0°C 89% Calm Calm 2.0 mph3.2 kmh 29.75 in1007.5 mb 0.00 in0.0 mm 0.00 in0.0 mm 0.00 in0.0 mm
11:02 PM 64.0°F17.8°C 60.8°F16.0°C 89% Calm Calm 0.9 mph1.4 kmh 29.75 in1007.5 mb 0.00 in0.0 mm 0.00 in0.0 mm 0.00 in0.0 mm
11:12 PM 64.0°F17.8°C 60.8°F16.0°C 89% Calm Calm -- 29.75 in1007.5 mb 0.00 in0.0 mm 0.00 in0.0 mm 0.00 in0.0 mm
11:22 PM 63.7°F17.6°C 60.1°F15.6°C 88% Calm Calm -- 29.75 in1007.5 mb 0.00 in0.0 mm 0.00 in0.0 mm 0.00 in0.0 mm
11:32 PM 63.1°F17.3°C 59.9°F15.5°C 89% Calm Calm -- 29.74 in1007.1 mb 0.00 in0.0 mm 0.00 in0.0 mm 0.00 in0.0 mm
11:42 PM 63.0°F17.2°C 59.7°F15.4°C 89% Calm Calm -- 29.74 in1007.1 mb 0.00 in0.0 mm 0.00 in0.0 mm 0.00 in0.0 mm
11:52 PM 62.8°F17.1°C 59.7°F15.4°C 90% Calm Calm -- 29.74 in1007.1 mb 0.00 in0.0 mm 0.00 in0.0 mm 0.00 in0.0 mm